createdAt,value
2018-05-15T00:01:09.912Z,21.10
2018-05-15T00:03:37.975Z,21.20
2018-05-15T00:06:05.678Z,21.30
2018-05-15T00:11:01.181Z,21.00
2018-05-15T00:13:28.638Z,21.10
2018-05-15T00:15:56.630Z,21.10
2018-05-15T00:18:23.883Z,21.10
2018-05-15T00:20:51.172Z,20.60
2018-05-15T00:25:46.650Z,21.20
2018-05-15T00:28:13.910Z,21.30
2018-05-15T00:30:41.209Z,21.00
2018-05-15T00:33:08.510Z,20.40
2018-05-15T00:40:32.929Z,20.40
2018-05-15T00:45:28.422Z,20.60
2018-05-15T00:47:56.542Z,21.00
2018-05-15T00:50:23.972Z,21.50
2018-05-15T00:52:51.298Z,21.60
2018-05-15T00:55:30.884Z,20.70
2018-05-15T01:00:27.195Z,19.90
2018-05-15T01:02:55.218Z,19.60
2018-05-15T01:05:23.242Z,19.70
2018-05-15T01:07:51.322Z,19.40
2018-05-15T01:10:19.435Z,18.90
2018-05-15T01:12:47.459Z,18.20
2018-05-15T01:15:14.764Z,17.70
2018-05-15T01:17:42.068Z,18.50
2018-05-15T01:22:38.344Z,20.20
2018-05-15T01:30:02.330Z,20.90
2018-05-15T01:34:58.866Z,20.40
2018-05-15T01:39:55.229Z,20.50
2018-05-15T01:42:22.501Z,20.70
2018-05-15T01:47:18.175Z,21.10
2018-05-15T01:49:46.275Z,21.10
2018-05-15T01:57:10.790Z,21.40
2018-05-15T01:59:38.067Z,21.20
2018-05-15T02:02:05.366Z,21.20
2018-05-15T02:07:00.989Z,20.40
2018-05-15T02:09:28.341Z,20.30
2018-05-15T02:11:55.703Z,20.40
2018-05-15T02:14:23.005Z,20.70
2018-05-15T02:19:18.799Z,20.80
2018-05-15T02:21:46.101Z,21.00
2018-05-15T02:24:14.106Z,21.20
2018-05-15T02:26:41.435Z,21.10
2018-05-15T02:29:09.614Z,21.00
2018-05-15T02:31:37.959Z,21.00
2018-05-15T02:34:05.338Z,21.40
2018-05-15T02:36:32.623Z,22.20
2018-05-15T02:39:00.725Z,22.40
2018-05-15T02:41:28.087Z,22.60
2018-05-15T02:46:23.704Z,23.10
2018-05-15T02:48:51.845Z,23.30
2018-05-15T02:51:19.871Z,23.40
2018-05-15T02:53:47.279Z,23.40
2018-05-15T02:56:15.306Z,23.20
2018-05-15T02:58:42.566Z,23.20
2018-05-15T03:01:10.730Z,23.40
2018-05-15T03:03:38.020Z,23.50
2018-05-15T03:06:06.049Z,23.60
2018-05-15T03:08:34.088Z,23.50
2018-05-15T03:11:02.151Z,23.60
2018-05-15T03:13:29.551Z,23.60
2018-05-15T03:18:25.095Z,23.40
2018-05-15T03:23:21.427Z,23.10
2018-05-15T03:28:17.686Z,22.90
2018-05-15T03:33:13.329Z,22.80
2018-05-15T03:38:08.887Z,22.90
2018-05-15T03:40:36.167Z,23.10
2018-05-15T03:43:03.562Z,23.00
2018-05-15T03:45:31.687Z,23.00
2018-05-15T03:50:27.457Z,23.10
2018-05-15T03:52:55.606Z,23.10
2018-05-15T03:55:22.926Z,23.10
2018-05-15T03:57:50.942Z,23.20
2018-05-15T04:00:31.186Z,23.30
2018-05-15T04:03:10.682Z,23.50
2018-05-15T04:05:50.162Z,23.50
2018-05-15T04:08:18.094Z,23.40
2018-05-15T04:13:14.600Z,23.60
2018-05-15T04:15:42.041Z,23.70
2018-05-15T04:18:10.063Z,23.70
2018-05-15T04:20:38.091Z,23.60
2018-05-15T04:23:05.415Z,23.60
2018-05-15T04:25:32.735Z,23.50
2018-05-15T04:28:00.846Z,23.50
2018-05-15T04:30:28.127Z,23.50
2018-05-15T04:32:55.421Z,23.60
2018-05-15T04:35:23.582Z,23.60
2018-05-15T04:37:50.884Z,23.70
2018-05-15T04:40:18.914Z,23.70
2018-05-15T04:42:46.987Z,23.80
2018-05-15T04:45:15.011Z,23.90
2018-05-15T04:50:10.512Z,23.90
2018-05-15T04:55:06.087Z,23.80
2018-05-15T04:57:33.424Z,23.80
2018-05-15T05:00:01.509Z,23.70
2018-05-15T05:02:29.662Z,23.40
2018-05-15T05:07:25.983Z,21.50
2018-05-15T05:09:53.298Z,21.20
2018-05-15T05:12:21.378Z,21.70
2018-05-15T05:14:48.894Z,22.20
2018-05-15T05:17:16.271Z,22.60
2018-05-15T05:19:44.290Z,22.90
2018-05-15T05:22:11.735Z,23.20
2018-05-15T05:27:08.894Z,23.50
2018-05-15T05:29:36.881Z,23.60
2018-05-15T05:32:04.246Z,23.60
2018-05-15T05:34:31.579Z,23.80
2018-05-15T05:39:27.086Z,24.10
2018-05-15T05:41:54.442Z,24.20
2018-05-15T05:44:21.771Z,24.20
2018-05-15T05:46:49.774Z,24.20
2018-05-15T05:49:27.086Z,24.20
2018-05-15T05:51:54.693Z,24.20
2018-05-15T05:54:22.047Z,24.20
2018-05-15T05:56:49.338Z,24.10
2018-05-15T05:59:16.617Z,24.10
2018-05-15T06:01:43.910Z,24.00
2018-05-15T06:04:11.206Z,24.30
2018-05-15T06:06:39.220Z,24.20
2018-05-15T06:09:06.549Z,24.60
2018-05-15T06:16:32.199Z,24.70
2018-05-15T06:21:27.842Z,24.60
2018-05-15T06:26:24.139Z,24.80
2018-05-15T06:28:51.443Z,24.60
2018-05-15T06:31:19.624Z,24.40
2018-05-15T06:33:47.199Z,24.70
2018-05-15T06:38:42.770Z,24.60
2018-05-15T06:43:38.293Z,24.80
2018-05-15T06:46:06.302Z,24.60
2018-05-15T06:51:01.849Z,24.20
2018-05-15T06:53:29.986Z,24.20
2018-05-15T06:55:57.363Z,24.30
2018-05-15T06:58:24.710Z,24.40
2018-05-15T07:03:20.246Z,24.40
2018-05-15T07:05:48.251Z,24.40
2018-05-15T07:08:16.314Z,24.20
2018-05-15T07:10:44.070Z,23.60
2018-05-15T07:13:11.394Z,23.60
2018-05-15T07:15:39.421Z,23.70
2018-05-15T07:18:06.720Z,23.90
2018-05-15T07:20:34.783Z,24.00
2018-05-15T07:23:02.104Z,24.00
2018-05-15T07:27:57.750Z,23.90
2018-05-15T07:30:25.090Z,23.90
2018-05-15T07:32:52.347Z,24.00
2018-05-15T07:37:48.602Z,24.00
2018-05-15T07:40:16.275Z,23.90
2018-05-15T07:42:43.291Z,23.90
2018-05-15T07:47:39.558Z,24.10
2018-05-15T07:55:04.401Z,24.40
2018-05-15T07:57:31.779Z,24.70
2018-05-15T07:59:59.070Z,24.80
2018-05-15T08:02:26.415Z,24.80
2018-05-15T08:04:53.734Z,24.80
2018-05-15T08:07:21.805Z,24.90
2018-05-15T08:09:49.856Z,25.00
2018-05-15T08:14:45.373Z,25.00
2018-05-15T08:17:13.450Z,25.50
2018-05-15T08:22:09.785Z,25.80
2018-05-15T08:24:37.843Z,26.10
2018-05-15T08:27:05.120Z,26.40
2018-05-15T08:32:00.631Z,26.90
2018-05-15T08:34:27.929Z,27.20
2018-05-15T08:36:56.001Z,27.50
2018-05-15T08:39:23.307Z,27.50
2018-05-15T08:41:50.601Z,27.40
2018-05-15T08:44:18.621Z,27.30
2018-05-15T08:49:14.938Z,27.90
2018-05-15T08:51:42.255Z,27.90
2018-05-15T08:54:10.449Z,27.70
2018-05-15T08:56:38.762Z,26.90
2018-05-15T08:59:06.807Z,26.40
2018-05-15T09:04:03.125Z,27.30
2018-05-15T09:08:58.738Z,27.40
2018-05-15T09:11:26.889Z,26.90
2018-05-15T09:13:54.211Z,26.80
2018-05-15T09:16:21.530Z,26.70
2018-05-15T09:21:17.779Z,27.20
2018-05-15T09:23:45.874Z,27.70
2018-05-15T09:26:13.152Z,27.80
2018-05-15T09:28:41.190Z,27.30
2018-05-15T09:33:36.859Z,26.50
2018-05-15T09:36:04.434Z,26.50
2018-05-15T09:38:32.587Z,26.60
2018-05-15T09:41:00.589Z,26.50
2018-05-15T09:46:29.096Z,26.20
2018-05-15T09:48:57.250Z,26.10
2018-05-15T09:53:53.049Z,26.20
2018-05-15T09:56:20.303Z,26.10
2018-05-15T09:58:47.614Z,26.00
2018-05-15T10:03:43.910Z,27.50
2018-05-15T10:06:11.298Z,28.10
2018-05-15T10:11:06.829Z,29.00
2018-05-15T10:13:34.918Z,29.50
2018-05-15T10:20:58.838Z,28.50
2018-05-15T10:25:54.668Z,29.00
2018-05-15T10:28:21.999Z,28.40
2018-05-15T10:33:17.569Z,28.70
2018-05-15T10:35:45.602Z,29.00
2018-05-15T10:38:13.006Z,29.30
2018-05-15T10:40:41.011Z,29.80
2018-05-15T10:43:08.311Z,30.60
2018-05-15T10:48:03.837Z,30.90
2018-05-15T10:50:31.118Z,30.60
2018-05-15T10:52:58.450Z,30.90
2018-05-15T10:55:26.481Z,31.40
2018-05-15T10:57:54.527Z,31.80
2018-05-15T11:02:50.162Z,31.20
2018-05-15T11:05:18.210Z,30.60
2018-05-15T11:07:46.269Z,30.20
2018-05-15T11:10:14.334Z,30.80
2018-05-15T11:12:42.450Z,30.90
2018-05-15T11:15:09.779Z,30.00
2018-05-15T11:17:37.179Z,28.90
2018-05-15T11:20:17.118Z,28.70
2018-05-15T11:22:57.354Z,29.00
2018-05-15T11:25:25.291Z,28.90
2018-05-15T11:30:20.983Z,31.00
2018-05-15T11:32:49.235Z,30.10
2018-05-15T11:37:44.786Z,28.10
2018-05-15T11:42:41.276Z,27.60
2018-05-15T11:45:08.544Z,27.40
2018-05-15T11:47:37.019Z,27.30
2018-05-15T11:50:05.038Z,27.00
2018-05-15T11:52:32.180Z,26.80
2018-05-15T11:54:59.667Z,26.70
2018-05-15T11:57:26.960Z,26.60
2018-05-15T11:59:54.322Z,26.70
2018-05-15T12:02:21.721Z,26.50
2018-05-15T12:04:49.183Z,26.70
2018-05-15T12:07:17.234Z,27.10
2018-05-15T12:09:45.558Z,27.80
2018-05-15T12:12:12.901Z,29.20
2018-05-15T12:14:40.237Z,30.20
2018-05-15T12:17:08.279Z,30.90
2018-05-15T12:19:36.294Z,31.30
2018-05-15T12:22:04.375Z,31.60
2018-05-15T12:24:31.769Z,31.30
2018-05-15T12:29:27.335Z,30.30
2018-05-15T12:31:55.362Z,29.30
2018-05-15T12:34:22.679Z,28.80
2018-05-15T12:36:50.022Z,28.60
2018-05-15T12:39:18.067Z,29.40
2018-05-15T12:51:39.095Z,28.80
2018-05-15T12:56:34.790Z,28.90
2018-05-15T12:59:02.920Z,29.40
2018-05-15T13:06:26.723Z,30.50
2018-05-15T13:11:22.260Z,29.30
2018-05-15T13:13:49.734Z,28.80
2018-05-15T13:16:17.814Z,28.20
2018-05-15T13:18:45.217Z,27.80
2018-05-15T13:21:13.347Z,27.30
2018-05-15T13:23:41.477Z,27.30
2018-05-15T13:28:37.000Z,29.00
2018-05-15T13:31:05.017Z,29.20
2018-05-15T13:33:33.094Z,29.20
2018-05-15T13:36:01.148Z,29.20
2018-05-15T13:38:29.281Z,29.50
2018-05-15T13:40:57.550Z,28.90
2018-05-15T13:43:25.723Z,29.00
2018-05-15T13:45:53.006Z,29.30
2018-05-15T13:48:21.137Z,29.50
2018-05-15T13:50:49.189Z,29.60
2018-05-15T13:53:16.498Z,29.60
2018-05-15T13:55:44.561Z,29.80
2018-05-15T13:58:12.634Z,29.80
2018-05-15T14:03:08.315Z,29.40
2018-05-15T14:05:35.630Z,28.90
2018-05-15T14:08:03.032Z,29.10
2018-05-15T14:10:30.677Z,29.60
2018-05-15T14:12:58.846Z,30.00
2018-05-15T14:15:26.182Z,29.70
2018-05-15T14:17:53.512Z,29.60
2018-05-15T14:25:17.369Z,29.50
2018-05-15T14:27:45.477Z,29.40
2018-05-15T14:30:12.765Z,29.60
2018-05-15T14:32:40.161Z,29.80
2018-05-15T14:35:07.483Z,29.50
2018-05-15T14:40:03.664Z,29.90
2018-05-15T14:42:44.094Z,30.00
2018-05-15T14:45:14.935Z,30.00
2018-05-15T14:47:43.068Z,29.70
2018-05-15T14:50:11.599Z,29.20
2018-05-15T14:52:39.343Z,28.60
2018-05-15T15:00:03.264Z,28.10
2018-05-15T15:02:31.346Z,28.60
2018-05-15T15:04:59.714Z,28.80
2018-05-15T15:09:55.347Z,28.30
2018-05-15T15:12:22.616Z,28.10
2018-05-15T15:17:19.104Z,28.30
2018-05-15T15:19:47.443Z,28.40
2018-05-15T15:24:43.055Z,28.70
2018-05-15T15:27:10.364Z,28.80
2018-05-15T15:29:38.561Z,28.70
2018-05-15T15:34:35.042Z,28.60
2018-05-15T15:37:03.053Z,28.50
2018-05-15T15:39:31.239Z,28.60
2018-05-15T15:42:06.729Z,28.30
2018-05-15T15:44:46.707Z,27.90
2018-05-15T15:47:15.891Z,27.60
2018-05-15T15:49:45.767Z,27.50
2018-05-15T15:52:16.911Z,27.40
2018-05-15T15:54:46.047Z,27.60
2018-05-15T15:57:16.080Z,27.70
2018-05-15T15:59:54.027Z,27.40
2018-05-15T16:02:25.937Z,27.30
2018-05-15T16:04:53.307Z,27.30
2018-05-15T16:07:23.915Z,27.40
2018-05-15T16:09:56.207Z,27.40
2018-05-15T16:12:32.743Z,27.30
2018-05-15T16:15:02.613Z,27.20
2018-05-15T16:17:37.401Z,27.00
2018-05-15T16:20:06.631Z,26.80
2018-05-15T16:22:37.684Z,26.80
2018-05-15T16:25:07.887Z,26.80
2018-05-15T16:27:40.210Z,26.70
2018-05-15T16:30:13.329Z,26.70
2018-05-15T16:32:44.488Z,26.80
2018-05-15T16:35:16.672Z,26.90
2018-05-15T16:37:44.217Z,26.90
2018-05-15T16:40:15.586Z,26.90
2018-05-15T16:42:46.459Z,26.90
2018-05-15T16:45:22.550Z,27.00
2018-05-15T16:50:29.512Z,26.90
2018-05-15T16:58:17.831Z,26.60
2018-05-15T17:00:53.859Z,26.60
2018-05-15T17:03:23.609Z,26.60
2018-05-15T17:05:52.954Z,26.60
2018-05-15T17:08:21.337Z,26.60
2018-05-15T17:10:55.105Z,26.60
2018-05-15T17:13:28.060Z,26.60
2018-05-15T17:18:34.761Z,26.70
2018-05-15T17:21:06.577Z,26.60
2018-05-15T17:23:36.872Z,26.30
2018-05-15T17:26:10.152Z,26.30
2018-05-15T17:28:40.315Z,26.30
2018-05-15T17:31:11.412Z,26.20
2018-05-15T17:33:39.590Z,26.20
2018-05-15T17:36:09.508Z,26.30
2018-05-15T17:38:41.406Z,26.30
2018-05-15T17:41:09.702Z,26.40
2018-05-15T17:43:39.670Z,26.40
2018-05-15T17:46:10.897Z,26.30
2018-05-15T17:48:41.225Z,26.20
2018-05-15T17:51:13.932Z,26.20
2018-05-15T17:53:43.292Z,26.20
2018-05-15T17:56:13.363Z,26.20
2018-05-15T17:58:40.747Z,26.20
2018-05-15T18:01:10.528Z,26.20
2018-05-15T18:03:39.645Z,26.30
2018-05-15T18:06:11.775Z,26.20
2018-05-15T18:08:44.088Z,26.30
2018-05-15T18:11:13.816Z,26.20
2018-05-15T18:13:42.163Z,26.10
2018-05-15T18:16:14.304Z,26.00
2018-05-15T18:18:45.663Z,25.90
2018-05-15T18:21:16.920Z,25.60
2018-05-15T18:23:46.987Z,25.60
2018-05-15T18:26:15.475Z,25.60
2018-05-15T18:28:42.889Z,25.00
2018-05-15T18:31:11.100Z,24.60
2018-05-15T18:33:40.089Z,24.60
2018-05-15T18:36:09.416Z,24.60
2018-05-15T18:38:37.715Z,24.80
2018-05-15T18:41:08.960Z,25.10
2018-05-15T18:43:37.821Z,25.50
2018-05-15T18:46:06.255Z,25.50
2018-05-15T18:48:37.908Z,25.50
2018-05-15T18:51:07.501Z,25.60
2018-05-15T18:53:40.680Z,25.70
2018-05-15T18:56:12.565Z,25.60
2018-05-15T18:58:43.903Z,25.50
2018-05-15T19:01:13.549Z,25.50
2018-05-15T19:03:43.042Z,25.70
2018-05-15T19:06:11.619Z,25.70
2018-05-15T19:08:39.203Z,25.60
2018-05-15T19:11:08.541Z,25.60
2018-05-15T19:13:36.715Z,25.50
2018-05-15T19:16:04.084Z,25.20
2018-05-15T19:18:33.993Z,24.90
2018-05-15T19:21:02.224Z,24.80
2018-05-15T19:23:29.917Z,24.80
2018-05-15T19:25:59.279Z,24.70
2018-05-15T19:28:27.967Z,24.80
2018-05-15T19:30:55.596Z,24.90
2018-05-15T19:33:29.974Z,24.90
2018-05-15T19:36:06.843Z,24.80
2018-05-15T19:38:36.930Z,24.70
2018-05-15T19:41:06.237Z,24.60
2018-05-15T19:43:34.954Z,24.70
2018-05-15T19:46:03.787Z,24.60
2018-05-15T19:48:33.825Z,24.60
2018-05-15T19:51:04.680Z,24.60
2018-05-15T19:53:34.847Z,24.50
2018-05-15T19:56:03.115Z,24.40
2018-05-15T19:58:32.946Z,24.20
2018-05-15T20:01:01.942Z,24.40
2018-05-15T20:03:31.017Z,24.40
2018-05-15T20:06:01.365Z,24.40
2018-05-15T20:08:29.003Z,24.30
2018-05-15T20:10:56.335Z,24.30
2018-05-15T20:13:25.807Z,24.30
2018-05-15T20:15:58.591Z,24.40
2018-05-15T20:18:27.977Z,24.30
2018-05-15T20:20:57.272Z,24.20
2018-05-15T20:23:29.905Z,23.30
2018-05-15T20:25:58.262Z,21.60
2018-05-15T20:28:25.624Z,21.00
2018-05-15T20:30:54.016Z,20.90
2018-05-15T20:33:24.281Z,21.30
2018-05-15T20:35:55.154Z,22.10
2018-05-15T20:38:24.354Z,22.70
2018-05-15T20:40:52.808Z,22.60
2018-05-15T20:43:21.217Z,21.30
2018-05-15T20:45:52.936Z,20.80
2018-05-15T20:48:26.094Z,21.00
2018-05-15T20:50:57.372Z,20.60
2018-05-15T20:53:25.949Z,19.80
2018-05-15T20:55:54.319Z,19.40
2018-05-15T20:58:23.415Z,19.20
2018-05-15T21:00:52.555Z,19.40
2018-05-15T21:03:23.692Z,19.60
2018-05-15T21:05:53.770Z,19.30
2018-05-15T21:08:23.677Z,19.70
2018-05-15T21:11:00.688Z,20.50
2018-05-15T21:13:34.922Z,21.30
2018-05-15T21:16:07.826Z,21.80
2018-05-15T21:18:41.351Z,22.10
2018-05-15T21:21:09.427Z,22.30
2018-05-15T21:31:14.444Z,21.10
2018-05-15T21:33:43.811Z,21.20
2018-05-15T21:36:12.895Z,21.10
2018-05-15T21:38:42.175Z,21.20
2018-05-15T21:41:11.299Z,21.20
2018-05-15T21:43:38.623Z,21.50
2018-05-15T21:46:05.989Z,22.00
2018-05-15T21:48:33.463Z,22.30
2018-05-15T21:51:10.302Z,22.50
2018-05-15T21:53:37.714Z,22.60
2018-05-15T21:56:06.903Z,22.70
2018-05-15T21:58:34.473Z,22.00
2018-05-15T22:01:04.476Z,20.00
2018-05-15T22:03:35.802Z,19.20
2018-05-15T22:06:06.527Z,19.10
2018-05-15T22:08:34.645Z,18.70
2018-05-15T22:11:12.794Z,18.20
2018-05-15T22:13:52.080Z,18.00
2018-05-15T22:16:37.592Z,17.80
2018-05-15T22:22:04.222Z,20.10
2018-05-15T22:24:38.405Z,20.40
2018-05-15T22:29:33.968Z,21.20
2018-05-15T22:32:02.045Z,21.60
2018-05-15T22:34:29.464Z,22.00
2018-05-15T22:39:25.242Z,22.30
2018-05-15T22:41:52.540Z,22.00
2018-05-15T22:46:48.834Z,21.00
2018-05-15T22:49:16.309Z,21.00
2018-05-15T22:51:44.371Z,20.50
2018-05-15T22:56:40.049Z,19.90
2018-05-15T22:59:07.386Z,20.20
2018-05-15T23:06:31.201Z,21.40
2018-05-15T23:08:59.206Z,21.70
2018-05-15T23:11:27.303Z,21.80
2018-05-15T23:16:24.416Z,22.30
2018-05-15T23:18:51.733Z,22.40
2018-05-15T23:21:19.117Z,22.50
2018-05-15T23:23:46.706Z,22.40
2018-05-15T23:28:42.279Z,20.00
2018-05-15T23:33:38.630Z,19.00
2018-05-15T23:36:06.731Z,18.60
2018-05-15T23:38:34.031Z,18.40
2018-05-15T23:41:02.039Z,18.10
2018-05-15T23:43:30.083Z,17.50
2018-05-15T23:48:26.643Z,17.10
2018-05-15T23:50:53.954Z,17.40
2018-05-15T23:53:22.056Z,18.60
2018-05-15T23:58:17.616Z,20.50
